sensor_id;sensor_type;location;lat;lon;timestamp;temperature;humidity
22321;DHT22;11328;53.928;18.522;2022-11-15T00:01:16;8.70;99.90
22321;DHT22;11328;53.928;18.522;2022-11-15T00:03:45;8.60;99.90
22321;DHT22;11328;53.928;18.522;2022-11-15T00:06:13;8.60;99.90
22321;DHT22;11328;53.928;18.522;2022-11-15T00:08:41;8.50;99.90
22321;DHT22;11328;53.928;18.522;2022-11-15T00:11:10;8.60;99.90
22321;DHT22;11328;53.928;18.522;2022-11-15T00:13:40;8.60;99.90
22321;DHT22;11328;53.928;18.522;2022-11-15T00:16:10;8.50;99.90
22321;DHT22;11328;53.928;18.522;2022-11-15T00:18:38;8.50;99.90
22321;DHT22;11328;53.928;18.522;2022-11-15T00:21:09;8.50;99.90
22321;DHT22;11328;53.928;18.522;2022-11-15T00:23:38;8.60;99.90
22321;DHT22;11328;53.928;18.522;2022-11-15T00:26:08;8.60;99.90
22321;DHT22;11328;53.928;18.522;2022-11-15T00:28:39;8.60;99.90
22321;DHT22;11328;53.928;18.522;2022-11-15T00:31:13;8.60;99.90
22321;DHT22;11328;53.928;18.522;2022-11-15T00:33:43;8.60;99.90
22321;DHT22;11328;53.928;18.522;2022-11-15T00:36:12;8.50;99.90
22321;DHT22;11328;53.928;18.522;2022-11-15T00:38:40;8.40;99.90
22321;DHT22;11328;53.928;18.522;2022-11-15T00:41:08;8.30;99.90
22321;DHT22;11328;53.928;18.522;2022-11-15T00:43:36;8.40;99.90
22321;DHT22;11328;53.928;18.522;2022-11-15T00:46:04;8.50;99.90
22321;DHT22;11328;53.928;18.522;2022-11-15T00:48:32;8.40;99.90
22321;DHT22;11328;53.928;18.522;2022-11-15T00:50:59;8.40;99.90
22321;DHT22;11328;53.928;18.522;2022-11-15T00:53:27;8.50;99.90
22321;DHT22;11328;53.928;18.522;2022-11-15T00:55:56;8.50;99.90
22321;DHT22;11328;53.928;18.522;2022-11-15T00:58:24;8.40;99.90
22321;DHT22;11328;53.928;18.522;2022-11-15T01:13:36;8.30;99.90
22321;DHT22;11328;53.928;18.522;2022-11-15T01:16:13;9.10;99.90
22321;DHT22;11328;53.928;18.522;2022-11-15T01:18:43;9.00;99.90
22321;DHT22;11328;53.928;18.522;2022-11-15T01:21:14;8.90;99.90
22321;DHT22;11328;53.928;18.522;2022-11-15T01:23:43;8.90;99.90
22321;DHT22;11328;53.928;18.522;2022-11-15T01:26:14;8.90;99.90
22321;DHT22;11328;53.928;18.522;2022-11-15T01:28:42;9.00;99.90
22321;DHT22;11328;53.928;18.522;2022-11-15T01:31:13;8.90;99.90
22321;DHT22;11328;53.928;18.522;2022-11-15T01:33:42;8.90;99.90
22321;DHT22;11328;53.928;18.522;2022-11-15T01:36:21;8.80;99.90
22321;DHT22;11328;53.928;18.522;2022-11-15T01:38:56;8.80;99.90
22321;DHT22;11328;53.928;18.522;2022-11-15T01:41:30;8.70;99.90
22321;DHT22;11328;53.928;18.522;2022-11-15T01:47:16;8.80;99.90
22321;DHT22;11328;53.928;18.522;2022-11-15T01:52:37;8.80;99.90
22321;DHT22;11328;53.928;18.522;2022-11-15T01:55:18;8.90;99.90
22321;DHT22;11328;53.928;18.522;2022-11-15T01:57:59;8.90;99.90
22321;DHT22;11328;53.928;18.522;2022-11-15T02:00:29;8.90;99.90
22321;DHT22;11328;53.928;18.522;2022-11-15T02:02:57;8.90;99.90
22321;DHT22;11328;53.928;18.522;2022-11-15T02:05:24;8.80;99.90
22321;DHT22;11328;53.928;18.522;2022-11-15T02:07:51;8.70;99.90
22321;DHT22;11328;53.928;18.522;2022-11-15T02:10:21;8.70;99.90
22321;DHT22;11328;53.928;18.522;2022-11-15T02:12:50;8.70;99.90
22321;DHT22;11328;53.928;18.522;2022-11-15T02:15:18;8.70;99.90
22321;DHT22;11328;53.928;18.522;2022-11-15T02:20:43;8.70;99.90
22321;DHT22;11328;53.928;18.522;2022-11-15T02:26:17;8.60;99.90
22321;DHT22;11328;53.928;18.522;2022-11-15T02:29:49;8.70;99.90
22321;DHT22;11328;53.928;18.522;2022-11-15T02:32:43;8.70;99.90
22321;DHT22;11328;53.928;18.522;2022-11-15T02:38:03;8.90;99.90
22321;DHT22;11328;53.928;18.522;2022-11-15T02:43:46;8.90;99.90
22321;DHT22;11328;53.928;18.522;2022-11-15T02:46:37;8.80;99.90
22321;DHT22;11328;53.928;18.522;2022-11-15T02:49:28;8.80;99.90
22321;DHT22;11328;53.928;18.522;2022-11-15T02:51:57;8.80;99.90
22321;DHT22;11328;53.928;18.522;2022-11-15T02:54:30;8.80;99.90
22321;DHT22;11328;53.928;18.522;2022-11-15T02:57:02;8.70;99.90
22321;DHT22;11328;53.928;18.522;2022-11-15T03:02:46;8.90;99.90
22321;DHT22;11328;53.928;18.522;2022-11-15T03:13:59;8.80;99.90
22321;DHT22;11328;53.928;18.522;2022-11-15T03:19:47;8.80;99.90
22321;DHT22;11328;53.928;18.522;2022-11-15T03:22:25;8.80;99.90
22321;DHT22;11328;53.928;18.522;2022-11-15T03:24:58;8.80;99.90
22321;DHT22;11328;53.928;18.522;2022-11-15T03:27:33;8.70;99.90
22321;DHT22;11328;53.928;18.522;2022-11-15T03:30:06;8.70;99.90
22321;DHT22;11328;53.928;18.522;2022-11-15T03:32:39;8.70;99.90
22321;DHT22;11328;53.928;18.522;2022-11-15T03:35:23;8.60;99.90
22321;DHT22;11328;53.928;18.522;2022-11-15T03:38:11;8.70;99.90
22321;DHT22;11328;53.928;18.522;2022-11-15T03:40:59;8.70;99.90
22321;DHT22;11328;53.928;18.522;2022-11-15T03:46:23;8.70;99.90
22321;DHT22;11328;53.928;18.522;2022-11-15T03:49:00;8.70;99.90
22321;DHT22;11328;53.928;18.522;2022-11-15T03:51:36;8.60;99.90
22321;DHT22;11328;53.928;18.522;2022-11-15T03:54:04;8.60;99.90
22321;DHT22;11328;53.928;18.522;2022-11-15T03:56:32;8.60;99.90
22321;DHT22;11328;53.928;18.522;2022-11-15T03:58:59;8.60;99.90
22321;DHT22;11328;53.928;18.522;2022-11-15T04:01:26;8.60;99.90
22321;DHT22;11328;53.928;18.522;2022-11-15T04:03:53;8.50;99.90
22321;DHT22;11328;53.928;18.522;2022-11-15T04:06:20;8.50;99.90
22321;DHT22;11328;53.928;18.522;2022-11-15T04:08:47;8.60;99.90
22321;DHT22;11328;53.928;18.522;2022-11-15T04:11:14;8.60;99.90
22321;DHT22;11328;53.928;18.522;2022-11-15T04:13:41;8.60;99.90
22321;DHT22;11328;53.928;18.522;2022-11-15T04:16:08;8.50;99.90
22321;DHT22;11328;53.928;18.522;2022-11-15T04:18:35;8.40;99.90
22321;DHT22;11328;53.928;18.522;2022-11-15T04:21:01;8.20;99.90
22321;DHT22;11328;53.928;18.522;2022-11-15T04:23:47;8.00;99.90
22321;DHT22;11328;53.928;18.522;2022-11-15T04:26:33;7.90;99.90
22321;DHT22;11328;53.928;18.522;2022-11-15T04:29:00;8.10;99.90
22321;DHT22;11328;53.928;18.522;2022-11-15T04:31:45;8.10;99.90
22321;DHT22;11328;53.928;18.522;2022-11-15T04:34:12;8.00;99.90
22321;DHT22;11328;53.928;18.522;2022-11-15T04:36:39;8.10;99.90
22321;DHT22;11328;53.928;18.522;2022-11-15T04:39:25;8.20;99.90
22321;DHT22;11328;53.928;18.522;2022-11-15T04:41:52;8.30;99.90
22321;DHT22;11328;53.928;18.522;2022-11-15T04:44:19;8.30;99.90
22321;DHT22;11328;53.928;18.522;2022-11-15T04:46:46;8.30;99.90
22321;DHT22;11328;53.928;18.522;2022-11-15T04:49:13;8.40;99.90
22321;DHT22;11328;53.928;18.522;2022-11-15T04:51:40;8.50;99.90
22321;DHT22;11328;53.928;18.522;2022-11-15T04:54:07;8.60;99.90
22321;DHT22;11328;53.928;18.522;2022-11-15T04:56:34;8.60;99.90
22321;DHT22;11328;53.928;18.522;2022-11-15T04:59:01;8.70;99.90
22321;DHT22;11328;53.928;18.522;2022-11-15T05:01:27;8.60;99.90
22321;DHT22;11328;53.928;18.522;2022-11-15T05:03:55;8.50;99.90
22321;DHT22;11328;53.928;18.522;2022-11-15T05:06:40;8.50;99.90
22321;DHT22;11328;53.928;18.522;2022-11-15T05:09:08;8.30;99.90
22321;DHT22;11328;53.928;18.522;2022-11-15T05:11:35;8.30;99.90
22321;DHT22;11328;53.928;18.522;2022-11-15T05:14:02;8.30;99.90
22321;DHT22;11328;53.928;18.522;2022-11-15T05:16:29;8.30;99.90
22321;DHT22;11328;53.928;18.522;2022-11-15T05:18:56;8.20;99.90
22321;DHT22;11328;53.928;18.522;2022-11-15T05:21:23;8.10;99.90
22321;DHT22;11328;53.928;18.522;2022-11-15T05:35:02;8.00;99.90
22321;DHT22;11328;53.928;18.522;2022-11-15T05:37:32;8.60;99.90
22321;DHT22;11328;53.928;18.522;2022-11-15T05:39:59;8.40;99.90
22321;DHT22;11328;53.928;18.522;2022-11-15T05:42:27;8.40;99.90
22321;DHT22;11328;53.928;18.522;2022-11-15T05:44:54;8.40;99.90
22321;DHT22;11328;53.928;18.522;2022-11-15T05:47:25;8.40;99.90
22321;DHT22;11328;53.928;18.522;2022-11-15T05:49:56;8.40;99.90
22321;DHT22;11328;53.928;18.522;2022-11-15T05:52:27;8.50;99.90
22321;DHT22;11328;53.928;18.522;2022-11-15T05:54:58;8.40;99.90
22321;DHT22;11328;53.928;18.522;2022-11-15T05:57:25;8.50;99.90
22321;DHT22;11328;53.928;18.522;2022-11-15T05:59:53;8.50;99.90
22321;DHT22;11328;53.928;18.522;2022-11-15T06:02:21;8.60;99.90
22321;DHT22;11328;53.928;18.522;2022-11-15T06:04:48;8.60;99.90
22321;DHT22;11328;53.928;18.522;2022-11-15T06:07:15;8.50;99.90
22321;DHT22;11328;53.928;18.522;2022-11-15T06:09:42;8.40;99.90
22321;DHT22;11328;53.928;18.522;2022-11-15T06:12:09;8.30;99.90
22321;DHT22;11328;53.928;18.522;2022-11-15T06:14:36;8.10;99.90
22321;DHT22;11328;53.928;18.522;2022-11-15T06:17:03;8.10;99.90
22321;DHT22;11328;53.928;18.522;2022-11-15T06:19:36;8.30;99.90
22321;DHT22;11328;53.928;18.522;2022-11-15T06:22:03;8.40;99.90
22321;DHT22;11328;53.928;18.522;2022-11-15T06:24:30;8.50;99.90
22321;DHT22;11328;53.928;18.522;2022-11-15T06:26:57;8.60;99.90
22321;DHT22;11328;53.928;18.522;2022-11-15T06:29:25;8.60;99.90
22321;DHT22;11328;53.928;18.522;2022-11-15T06:31:52;8.60;99.90
22321;DHT22;11328;53.928;18.522;2022-11-15T06:34:19;8.60;99.90
22321;DHT22;11328;53.928;18.522;2022-11-15T06:36:46;8.50;99.90
22321;DHT22;11328;53.928;18.522;2022-11-15T06:39:13;8.60;99.90
22321;DHT22;11328;53.928;18.522;2022-11-15T06:41:40;8.60;99.90
22321;DHT22;11328;53.928;18.522;2022-11-15T06:44:07;8.70;99.90
22321;DHT22;11328;53.928;18.522;2022-11-15T06:46:34;8.70;99.90
22321;DHT22;11328;53.928;18.522;2022-11-15T06:49:01;8.70;99.90
22321;DHT22;11328;53.928;18.522;2022-11-15T06:51:35;8.60;99.90
22321;DHT22;11328;53.928;18.522;2022-11-15T06:54:02;8.50;99.90
22321;DHT22;11328;53.928;18.522;2022-11-15T06:56:29;8.50;99.90
22321;DHT22;11328;53.928;18.522;2022-11-15T06:58:56;8.50;99.90
22321;DHT22;11328;53.928;18.522;2022-11-15T07:01:23;8.60;99.90
22321;DHT22;11328;53.928;18.522;2022-11-15T07:03:50;8.70;99.90
22321;DHT22;11328;53.928;18.522;2022-11-15T07:06:17;8.70;99.90
22321;DHT22;11328;53.928;18.522;2022-11-15T07:08:44;8.80;99.90
22321;DHT22;11328;53.928;18.522;2022-11-15T07:11:12;8.80;99.90
22321;DHT22;11328;53.928;18.522;2022-11-15T07:13:39;8.70;99.90
22321;DHT22;11328;53.928;18.522;2022-11-15T07:16:09;8.80;99.90
22321;DHT22;11328;53.928;18.522;2022-11-15T07:18:38;8.70;99.90
22321;DHT22;11328;53.928;18.522;2022-11-15T07:21:08;8.60;99.90
22321;DHT22;11328;53.928;18.522;2022-11-15T07:23:37;8.50;99.90
22321;DHT22;11328;53.928;18.522;2022-11-15T07:26:06;8.50;99.90
22321;DHT22;11328;53.928;18.522;2022-11-15T07:28:34;8.60;99.90
22321;DHT22;11328;53.928;18.522;2022-11-15T07:31:09;8.70;99.90
22321;DHT22;11328;53.928;18.522;2022-11-15T07:33:36;8.70;99.90
22321;DHT22;11328;53.928;18.522;2022-11-15T07:36:05;8.70;99.90
22321;DHT22;11328;53.928;18.522;2022-11-15T07:38:35;8.60;99.90
22321;DHT22;11328;53.928;18.522;2022-11-15T07:41:08;8.50;99.90
22321;DHT22;11328;53.928;18.522;2022-11-15T07:43:35;8.60;99.90
22321;DHT22;11328;53.928;18.522;2022-11-15T07:46:06;8.50;99.90
22321;DHT22;11328;53.928;18.522;2022-11-15T07:48:37;8.50;99.90
22321;DHT22;11328;53.928;18.522;2022-11-15T07:51:12;8.40;99.90
22321;DHT22;11328;53.928;18.522;2022-11-15T07:53:43;8.40;99.90
22321;DHT22;11328;53.928;18.522;2022-11-15T07:56:11;8.40;99.90
22321;DHT22;11328;53.928;18.522;2022-11-15T07:58:38;8.40;99.90
22321;DHT22;11328;53.928;18.522;2022-11-15T08:01:07;8.30;99.90
22321;DHT22;11328;53.928;18.522;2022-11-15T08:03:36;8.40;99.90
22321;DHT22;11328;53.928;18.522;2022-11-15T08:06:04;8.40;99.90
22321;DHT22;11328;53.928;18.522;2022-11-15T08:08:31;8.40;99.90
22321;DHT22;11328;53.928;18.522;2022-11-15T08:10:58;8.50;99.90
22321;DHT22;11328;53.928;18.522;2022-11-15T08:13:26;8.50;99.90
22321;DHT22;11328;53.928;18.522;2022-11-15T08:15:58;8.40;99.90
22321;DHT22;11328;53.928;18.522;2022-11-15T08:18:26;8.50;99.90
22321;DHT22;11328;53.928;18.522;2022-11-15T08:20:53;8.50;99.90
22321;DHT22;11328;53.928;18.522;2022-11-15T08:23:20;8.40;99.90
22321;DHT22;11328;53.928;18.522;2022-11-15T08:25:47;8.50;99.90
22321;DHT22;11328;53.928;18.522;2022-11-15T08:28:16;8.40;99.90
22321;DHT22;11328;53.928;18.522;2022-11-15T08:30:44;8.50;99.90
22321;DHT22;11328;53.928;18.522;2022-11-15T08:33:13;8.40;99.90
22321;DHT22;11328;53.928;18.522;2022-11-15T08:35:41;8.40;99.90
22321;DHT22;11328;53.928;18.522;2022-11-15T08:38:09;8.40;99.90
22321;DHT22;11328;53.928;18.522;2022-11-15T08:40:37;8.30;99.90
22321;DHT22;11328;53.928;18.522;2022-11-15T08:43:04;8.30;99.90
22321;DHT22;11328;53.928;18.522;2022-11-15T08:45:34;8.20;99.90
22321;DHT22;11328;53.928;18.522;2022-11-15T08:48:02;8.20;99.90
22321;DHT22;11328;53.928;18.522;2022-11-15T08:50:30;8.20;99.90
22321;DHT22;11328;53.928;18.522;2022-11-15T08:52:57;8.30;99.90
22321;DHT22;11328;53.928;18.522;2022-11-15T08:55:24;8.20;99.90
22321;DHT22;11328;53.928;18.522;2022-11-15T08:57:52;8.20;99.90
22321;DHT22;11328;53.928;18.522;2022-11-15T09:00:19;8.30;99.90
22321;DHT22;11328;53.928;18.522;2022-11-15T09:02:46;8.50;99.90
22321;DHT22;11328;53.928;18.522;2022-11-15T09:05:13;8.50;99.90
22321;DHT22;11328;53.928;18.522;2022-11-15T09:07:42;8.60;99.90
22321;DHT22;11328;53.928;18.522;2022-11-15T09:10:09;8.70;99.90
22321;DHT22;11328;53.928;18.522;2022-11-15T09:12:36;8.80;99.90
22321;DHT22;11328;53.928;18.522;2022-11-15T09:15:05;8.80;99.90
22321;DHT22;11328;53.928;18.522;2022-11-15T09:17:32;8.80;99.90
22321;DHT22;11328;53.928;18.522;2022-11-15T09:19:59;8.90;99.90
22321;DHT22;11328;53.928;18.522;2022-11-15T09:22:26;8.90;99.90
22321;DHT22;11328;53.928;18.522;2022-11-15T09:24:54;8.90;99.90
22321;DHT22;11328;53.928;18.522;2022-11-15T09:27:21;8.80;99.90
22321;DHT22;11328;53.928;18.522;2022-11-15T09:29:48;8.60;99.90
22321;DHT22;11328;53.928;18.522;2022-11-15T09:32:15;8.70;99.90
22321;DHT22;11328;53.928;18.522;2022-11-15T09:34:42;8.60;99.90
22321;DHT22;11328;53.928;18.522;2022-11-15T09:37:09;8.50;99.90
22321;DHT22;11328;53.928;18.522;2022-11-15T09:39:36;8.30;99.90
22321;DHT22;11328;53.928;18.522;2022-11-15T09:48:56;8.40;99.90
22321;DHT22;11328;53.928;18.522;2022-11-15T09:51:30;8.50;99.90
22321;DHT22;11328;53.928;18.522;2022-11-15T09:54:21;8.50;99.90
22321;DHT22;11328;53.928;18.522;2022-11-15T09:57:39;8.70;99.90
22321;DHT22;11328;53.928;18.522;2022-11-15T10:00:28;8.70;99.90
22321;DHT22;11328;53.928;18.522;2022-11-15T10:03:36;8.80;99.90
22321;DHT22;11328;53.928;18.522;2022-11-15T10:06:13;8.80;99.90
22321;DHT22;11328;53.928;18.522;2022-11-15T10:08:56;8.70;99.90
22321;DHT22;11328;53.928;18.522;2022-11-15T10:11:31;8.60;99.90
22321;DHT22;11328;53.928;18.522;2022-11-15T10:14:18;8.70;99.90
22321;DHT22;11328;53.928;18.522;2022-11-15T10:20:09;8.60;99.90
22321;DHT22;11328;53.928;18.522;2022-11-15T10:22:53;8.60;99.90
22321;DHT22;11328;53.928;18.522;2022-11-15T10:25:30;8.60;99.90
22321;DHT22;11328;53.928;18.522;2022-11-15T10:30:37;8.80;99.90
22321;DHT22;11328;53.928;18.522;2022-11-15T10:33:32;9.00;99.90
22321;DHT22;11328;53.928;18.522;2022-11-15T10:38:58;9.10;99.90
22321;DHT22;11328;53.928;18.522;2022-11-15T10:46:35;9.10;99.90
22321;DHT22;11328;53.928;18.522;2022-11-15T10:49:24;9.10;99.90
22321;DHT22;11328;53.928;18.522;2022-11-15T10:51:58;8.90;99.90
22321;DHT22;11328;53.928;18.522;2022-11-15T10:54:48;8.80;99.90
22321;DHT22;11328;53.928;18.522;2022-11-15T10:57:21;8.90;99.90
22321;DHT22;11328;53.928;18.522;2022-11-15T10:59:59;9.00;99.90
22321;DHT22;11328;53.928;18.522;2022-11-15T11:05:32;9.10;99.90
22321;DHT22;11328;53.928;18.522;2022-11-15T11:10:38;9.20;99.90
22321;DHT22;11328;53.928;18.522;2022-11-15T11:13:28;9.20;99.90
22321;DHT22;11328;53.928;18.522;2022-11-15T11:36:49;9.30;99.90
22321;DHT22;11328;53.928;18.522;2022-11-15T11:42:55;9.40;99.90
22321;DHT22;11328;53.928;18.522;2022-11-15T11:48:40;9.30;99.90
22321;DHT22;11328;53.928;18.522;2022-11-15T11:51:21;9.30;99.90
22321;DHT22;11328;53.928;18.522;2022-11-15T11:54:36;9.20;99.90
22321;DHT22;11328;53.928;18.522;2022-11-15T11:57:24;9.20;99.90
22321;DHT22;11328;53.928;18.522;2022-11-15T12:02:41;9.20;99.90
22321;DHT22;11328;53.928;18.522;2022-11-15T12:08:17;9.20;99.90
22321;DHT22;11328;53.928;18.522;2022-11-15T12:11:03;9.30;99.90
22321;DHT22;11328;53.928;18.522;2022-11-15T12:14:03;9.30;99.90
22321;DHT22;11328;53.928;18.522;2022-11-15T12:16:37;9.30;99.90
22321;DHT22;11328;53.928;18.522;2022-11-15T12:19:08;9.30;99.90
22321;DHT22;11328;53.928;18.522;2022-11-15T12:24:17;9.60;99.90
22321;DHT22;11328;53.928;18.522;2022-11-15T12:29:50;9.70;99.90
22321;DHT22;11328;53.928;18.522;2022-11-15T12:32:35;9.70;99.90
22321;DHT22;11328;53.928;18.522;2022-11-15T12:35:20;9.70;99.90
22321;DHT22;11328;53.928;18.522;2022-11-15T12:38:11;9.70;99.90
22321;DHT22;11328;53.928;18.522;2022-11-15T12:41:12;9.60;99.90
22321;DHT22;11328;53.928;18.522;2022-11-15T12:43:42;9.60;99.90
22321;DHT22;11328;53.928;18.522;2022-11-15T12:46:22;9.60;99.90
22321;DHT22;11328;53.928;18.522;2022-11-15T12:48:52;9.60;99.90
22321;DHT22;11328;53.928;18.522;2022-11-15T13:00:00;9.20;99.90
22321;DHT22;11328;53.928;18.522;2022-11-15T13:02:37;9.00;99.90
22321;DHT22;11328;53.928;18.522;2022-11-15T13:17:49;9.30;99.90
22321;DHT22;11328;53.928;18.522;2022-11-15T13:20:28;9.20;99.90
22321;DHT22;11328;53.928;18.522;2022-11-15T13:23:09;9.30;99.90
22321;DHT22;11328;53.928;18.522;2022-11-15T13:30:59;9.20;99.90
22321;DHT22;11328;53.928;18.522;2022-11-15T13:33:36;9.20;99.90
22321;DHT22;11328;53.928;18.522;2022-11-15T13:36:15;9.20;99.90
22321;DHT22;11328;53.928;18.522;2022-11-15T13:38:58;9.30;99.90
22321;DHT22;11328;53.928;18.522;2022-11-15T13:41:34;9.30;99.90
22321;DHT22;11328;53.928;18.522;2022-11-15T13:44:03;9.30;99.90
22321;DHT22;11328;53.928;18.522;2022-11-15T13:46:32;9.20;99.90
22321;DHT22;11328;53.928;18.522;2022-11-15T13:49:05;9.20;99.90
22321;DHT22;11328;53.928;18.522;2022-11-15T13:51:44;9.20;99.90
22321;DHT22;11328;53.928;18.522;2022-11-15T13:54:55;9.20;99.90
22321;DHT22;11328;53.928;18.522;2022-11-15T14:00:42;9.20;99.90
22321;DHT22;11328;53.928;18.522;2022-11-15T14:05:43;9.30;99.90
22321;DHT22;11328;53.928;18.522;2022-11-15T14:10:47;9.30;99.90
22321;DHT22;11328;53.928;18.522;2022-11-15T14:13:31;9.20;99.90
22321;DHT22;11328;53.928;18.522;2022-11-15T14:16:21;9.10;99.90
22321;DHT22;11328;53.928;18.522;2022-11-15T14:18:58;9.00;99.90
22321;DHT22;11328;53.928;18.522;2022-11-15T14:21:25;8.90;99.90
22321;DHT22;11328;53.928;18.522;2022-11-15T14:23:53;8.90;99.90
22321;DHT22;11328;53.928;18.522;2022-11-15T14:26:39;8.80;99.90
22321;DHT22;11328;53.928;18.522;2022-11-15T14:29:26;8.70;99.90
22321;DHT22;11328;53.928;18.522;2022-11-15T14:32:17;8.60;99.90
22321;DHT22;11328;53.928;18.522;2022-11-15T14:34:49;8.40;99.90
22321;DHT22;11328;53.928;18.522;2022-11-15T14:39:53;8.20;99.90
22321;DHT22;11328;53.928;18.522;2022-11-15T14:42:24;8.10;99.90
22321;DHT22;11328;53.928;18.522;2022-11-15T14:44:52;8.00;99.90
22321;DHT22;11328;53.928;18.522;2022-11-15T14:47:19;8.00;99.90
22321;DHT22;11328;53.928;18.522;2022-11-15T14:49:46;7.90;99.90
22321;DHT22;11328;53.928;18.522;2022-11-15T14:52:31;7.90;99.90
22321;DHT22;11328;53.928;18.522;2022-11-15T14:55:08;7.90;99.90
22321;DHT22;11328;53.928;18.522;2022-11-15T14:57:41;7.80;99.90
22321;DHT22;11328;53.928;18.522;2022-11-15T15:00:09;7.70;99.90
22321;DHT22;11328;53.928;18.522;2022-11-15T15:02:36;7.80;99.90
22321;DHT22;11328;53.928;18.522;2022-11-15T15:05:45;7.70;99.90
22321;DHT22;11328;53.928;18.522;2022-11-15T15:08:11;7.70;99.90
22321;DHT22;11328;53.928;18.522;2022-11-15T15:10:42;7.60;99.90
22321;DHT22;11328;53.928;18.522;2022-11-15T15:13:22;7.40;99.90
22321;DHT22;11328;53.928;18.522;2022-11-15T15:15:51;7.40;99.90
22321;DHT22;11328;53.928;18.522;2022-11-15T15:18:20;7.40;99.90
22321;DHT22;11328;53.928;18.522;2022-11-15T15:20:55;7.40;99.90
22321;DHT22;11328;53.928;18.522;2022-11-15T15:23:27;7.50;99.90
22321;DHT22;11328;53.928;18.522;2022-11-15T15:25:57;7.50;99.90
22321;DHT22;11328;53.928;18.522;2022-11-15T15:28:25;7.60;99.90
22321;DHT22;11328;53.928;18.522;2022-11-15T15:30:59;7.60;99.90
22321;DHT22;11328;53.928;18.522;2022-11-15T15:33:26;7.50;99.90
22321;DHT22;11328;53.928;18.522;2022-11-15T15:35:54;7.50;99.90
22321;DHT22;11328;53.928;18.522;2022-11-15T15:38:21;7.50;99.90
22321;DHT22;11328;53.928;18.522;2022-11-15T15:40:49;7.50;99.90
22321;DHT22;11328;53.928;18.522;2022-11-15T15:43:17;7.40;99.90
22321;DHT22;11328;53.928;18.522;2022-11-15T15:45:45;7.40;99.90
22321;DHT22;11328;53.928;18.522;2022-11-15T15:48:13;7.40;99.90
22321;DHT22;11328;53.928;18.522;2022-11-15T15:50:42;7.50;99.90
22321;DHT22;11328;53.928;18.522;2022-11-15T15:53:10;7.50;99.90
22321;DHT22;11328;53.928;18.522;2022-11-15T15:55:39;7.50;99.90
22321;DHT22;11328;53.928;18.522;2022-11-15T15:58:06;7.50;99.90
22321;DHT22;11328;53.928;18.522;2022-11-15T16:00:35;7.50;99.90
22321;DHT22;11328;53.928;18.522;2022-11-15T16:03:03;7.40;99.90
22321;DHT22;11328;53.928;18.522;2022-11-15T16:05:30;7.40;99.90
22321;DHT22;11328;53.928;18.522;2022-11-15T16:07:57;7.40;99.90
22321;DHT22;11328;53.928;18.522;2022-11-15T16:10:29;7.40;99.90
22321;DHT22;11328;53.928;18.522;2022-11-15T16:13:01;7.50;99.90
22321;DHT22;11328;53.928;18.522;2022-11-15T16:15:30;7.60;99.90
22321;DHT22;11328;53.928;18.522;2022-11-15T16:18:00;7.60;99.90
22321;DHT22;11328;53.928;18.522;2022-11-15T16:20:44;7.70;99.90
22321;DHT22;11328;53.928;18.522;2022-11-15T16:23:18;7.80;99.90
22321;DHT22;11328;53.928;18.522;2022-11-15T16:25:52;7.90;99.90
22321;DHT22;11328;53.928;18.522;2022-11-15T16:31:03;8.10;99.90
22321;DHT22;11328;53.928;18.522;2022-11-15T16:33:37;8.20;99.90
22321;DHT22;11328;53.928;18.522;2022-11-15T16:36:14;8.20;99.90
22321;DHT22;11328;53.928;18.522;2022-11-15T16:38:50;8.30;99.90
22321;DHT22;11328;53.928;18.522;2022-11-15T16:41:18;8.30;99.90
22321;DHT22;11328;53.928;18.522;2022-11-15T16:43:46;8.40;99.90
22321;DHT22;11328;53.928;18.522;2022-11-15T16:46:24;8.50;99.90
22321;DHT22;11328;53.928;18.522;2022-11-15T16:48:53;8.50;99.90
22321;DHT22;11328;53.928;18.522;2022-11-15T16:51:21;8.60;99.90
22321;DHT22;11328;53.928;18.522;2022-11-15T16:53:49;8.60;99.90
22321;DHT22;11328;53.928;18.522;2022-11-15T16:58:54;8.60;99.90
22321;DHT22;11328;53.928;18.522;2022-11-15T17:01:35;8.70;99.90
22321;DHT22;11328;53.928;18.522;2022-11-15T17:04:19;8.70;99.90
22321;DHT22;11328;53.928;18.522;2022-11-15T17:06:48;8.70;99.90
22321;DHT22;11328;53.928;18.522;2022-11-15T17:09:20;8.80;99.90
22321;DHT22;11328;53.928;18.522;2022-11-15T17:11:51;8.80;99.90
22321;DHT22;11328;53.928;18.522;2022-11-15T17:14:19;8.80;99.90
22321;DHT22;11328;53.928;18.522;2022-11-15T17:16:46;8.70;99.90
22321;DHT22;11328;53.928;18.522;2022-11-15T17:19:15;8.60;99.90
22321;DHT22;11328;53.928;18.522;2022-11-15T17:21:45;8.50;99.90
22321;DHT22;11328;53.928;18.522;2022-11-15T17:24:13;8.50;99.90
22321;DHT22;11328;53.928;18.522;2022-11-15T17:26:40;8.40;99.90
22321;DHT22;11328;53.928;18.522;2022-11-15T17:29:08;8.30;99.90
22321;DHT22;11328;53.928;18.522;2022-11-15T17:31:36;8.30;99.90
22321;DHT22;11328;53.928;18.522;2022-11-15T17:34:05;8.30;99.90
22321;DHT22;11328;53.928;18.522;2022-11-15T17:36:33;8.30;99.90
22321;DHT22;11328;53.928;18.522;2022-11-15T17:39:01;8.40;99.90
22321;DHT22;11328;53.928;18.522;2022-11-15T17:41:30;8.40;99.90
22321;DHT22;11328;53.928;18.522;2022-11-15T17:43:58;8.50;99.90
22321;DHT22;11328;53.928;18.522;2022-11-15T17:46:26;8.50;99.90
22321;DHT22;11328;53.928;18.522;2022-11-15T17:48:56;8.50;99.90
22321;DHT22;11328;53.928;18.522;2022-11-15T17:51:23;8.60;99.90
22321;DHT22;11328;53.928;18.522;2022-11-15T17:53:51;8.50;99.90
22321;DHT22;11328;53.928;18.522;2022-11-15T17:56:20;8.50;99.90
22321;DHT22;11328;53.928;18.522;2022-11-15T17:58:51;8.40;99.90
22321;DHT22;11328;53.928;18.522;2022-11-15T18:01:28;8.40;99.90
22321;DHT22;11328;53.928;18.522;2022-11-15T18:03:57;8.40;99.90
22321;DHT22;11328;53.928;18.522;2022-11-15T18:17:31;8.40;99.90
22321;DHT22;11328;53.928;18.522;2022-11-15T18:19:58;9.10;99.90
22321;DHT22;11328;53.928;18.522;2022-11-15T18:22:25;8.70;99.90
22321;DHT22;11328;53.928;18.522;2022-11-15T18:24:52;8.50;99.90
22321;DHT22;11328;53.928;18.522;2022-11-15T18:27:19;8.30;99.90
22321;DHT22;11328;53.928;18.522;2022-11-15T18:29:46;8.30;99.90
22321;DHT22;11328;53.928;18.522;2022-11-15T18:32:13;8.30;99.90
22321;DHT22;11328;53.928;18.522;2022-11-15T18:34:43;8.20;99.90
22321;DHT22;11328;53.928;18.522;2022-11-15T18:37:11;8.20;99.90
22321;DHT22;11328;53.928;18.522;2022-11-15T18:39:38;8.10;99.90
22321;DHT22;11328;53.928;18.522;2022-11-15T18:42:05;8.00;99.90
22321;DHT22;11328;53.928;18.522;2022-11-15T18:44:32;8.00;99.90
22321;DHT22;11328;53.928;18.522;2022-11-15T18:47:03;8.00;99.90
22321;DHT22;11328;53.928;18.522;2022-11-15T18:49:30;7.90;99.90
22321;DHT22;11328;53.928;18.522;2022-11-15T18:51:57;8.00;99.90
22321;DHT22;11328;53.928;18.522;2022-11-15T18:54:24;8.00;99.90
22321;DHT22;11328;53.928;18.522;2022-11-15T18:56:57;8.00;99.90
22321;DHT22;11328;53.928;18.522;2022-11-15T18:59:25;8.00;99.90